Aeroporto :
LOGIN :

Iscrizione | Disclaimer

   EN    FR    IT 

 










Sommario :    VFR   VFR Marginale   IFR   IFR Intensivo   IFR Molto Intensivo
Visibilità : 
Base nubi : 
>= 8 km
>= 3000ft
5 / 8 km
1000 / 3000 ft
1500m / 5 km
500 / 1000 ft
800 / 1500m
200 / 500 ft
< 800m
< 200 ft
Simboli :   Temporali  Nebbia  Neve Forte  Precipitazioni Forti  Vento > 20 kt
SIGMETs :   Varie  Temporali  Ghiacco  Turbolenza  Onda orograficha  Ceneri Vulcaniche






- Altitudine del aeroporto : 614 ft
- Codice IATA : CRL


EBCI - Charleroi

ULTIMO METAR :
  • 231420Z 34006KT 290V020 9999 FEW040 08/M03 Q1019 NOSIG

METARs OBSOLETI :
  • 231350Z 32004KT 260V030 9999 FEW040 08/M03 Q1019 NOSIG
  • 231320Z 31006KT 270V360 9999 FEW040 08/M03 Q1019 NOSIG
  • 231250Z 30006KT 260V340 9999 FEW040 08/M01 Q1019 NOSIG
  • 231220Z 36005KT 290V040 9999 FEW028 08/M02 Q1019 NOSIG
  • 231150Z 34005KT 310V040 9999 FEW028 07/M03 Q1020 NOSIG
  • 231120Z 03004KT 350V120 9999 FEW028 07/M03 Q1020 NOSIG
  • 231050Z 36005KT 290V050 9999 FEW028 07/M02 Q1020 NOSIG
  • 231020Z 04006KT 360V100 9999 FEW028 07/M01 Q1021 NOSIG
  • 230950Z 03006KT 340V060 9999 FEW025 07/M01 Q1021 NOSIG

TAF TAF EBCI
Valido dal 23 a 12 ore il 24 a 18 ore UTC


231110Z 2312/2418 34005KT 9999 SCT045
PROB40
TEMPO 2321/2324 SCT008 BKN012
PROB30
TEMPO 2408/2418 SHRA



MetMap, La meteo Aeronautica in un colpo d'occhio ! - Copyright ORBIFLY Dicembre 2007 - Disclaimer

ORBIFLY MET'MAP TEAM :

Programmazione e sviluppo : Alexandra Zaïnal
Concezione : Baudouin d'Aumeries
Supporto tecnico e logistico : Manuel Goepfert
Aiuto : Marc-Olivier Méhu
Aiuto per la traduzione : Arnaldo La Scala




FONTI E CREDITI :

   NOAA